Time;durP1;ratioP1;P1;durP2;ratioP2;P2;SDS_P1;SDS_P2;PMS_P1;PMS_P2;Temp;Humidity;BMP_temperature;BMP_pressure;BME280_temperature;BME280_humidity;BME280_pressure;Samples;Min_cycle;Max_cycle;Signal;HPM_P1;HPM_P2
2023/01/17 00:00:19;;;;;;;2.38;1.00;;;;;;;2.27;100.00;98341.53;5116144;28;20039;-91
2023/01/17 00:02:44;;;;;;;1.75;1.20;;;;;;;2.21;100.00;98332.28;5076425;28;20039;-91
2023/01/17 00:10:53;;;;;;;4.32;1.30;;;;;;;2.01;100.00;98342.94;5076592;28;20036;-92
2023/01/17 00:13:18;;;;;;;2.50;1.20;;;;;;;1.99;100.00;98350.66;5075744;28;20530;-91
2023/01/17 00:15:43;;;;;;;2.42;0.98;;;;;;;1.95;100.00;98348.19;5076484;28;20099;-92
2023/01/17 00:18:09;;;;;;;1.60;0.98;;;;;;;1.92;100.00;98346.50;5076235;28;20094;-91
2023/01/17 00:26:15;;;;;;;1.45;0.88;;;;;;;1.80;100.00;98362.13;5096538;28;20085;-91
2023/01/17 01:34:07;;;;;;;0.20;0.20;;;;;;;1.05;100.00;98480.13;5095024;28;20073;-91
2023/01/17 01:36:33;;;;;;;0.10;0.10;;;;;;;1.08;100.00;98486.00;5111788;28;20024;-91
2023/01/17 01:38:58;;;;;;;0.52;0.30;;;;;;;1.12;100.00;98489.38;5118655;28;20284;-92
2023/01/17 01:41:43;;;;;;;0.20;0.20;;;;;;;1.18;100.00;98496.09;5115136;28;20024;-91
2023/01/17 01:44:46;;;;;;;0.22;0.22;;;;;;;1.20;100.00;98494.38;5115037;28;20031;-91
2023/01/17 01:47:39;;;;;;;0.28;0.28;;;;;;;1.25;100.00;98505.34;5115220;28;20076;-90
2023/01/17 01:50:14;;;;;;;0.77;0.40;;;;;;;1.27;100.00;98507.91;5094365;28;20028;-91
2023/01/17 01:52:46;;;;;;;0.40;0.40;;;;;;;1.28;100.00;98522.38;5111724;28;20380;-91
2023/01/17 01:55:31;;;;;;;1.40;0.65;;;;;;;1.26;100.00;98519.81;5114749;28;20024;-91
2023/01/17 01:58:18;;;;;;;0.40;0.40;;;;;;;1.30;100.00;98524.03;5115142;28;20027;-91
2023/01/17 02:00:49;;;;;;;;;;;;;;;1.30;100.00;98530.81;5115322;28;20034;-91
2023/01/17 02:03:19;;;;;;;1.10;1.10;;;;;;;1.26;100.00;98530.03;5114651;28;20006;-91
2023/01/17 02:06:27;;;;;;;1.95;1.08;;;;;;;1.27;100.00;98536.00;5114770;28;20023;-91
2023/01/17 02:08:54;;;;;;;1.27;1.00;;;;;;;1.27;100.00;98526.63;5094640;28;20020;-91
2023/01/17 02:11:20;;;;;;;;;;;;;;;1.31;100.00;98535.06;5094192;28;20020;-90
2023/01/17 02:14:04;;;;;;;1.00;1.00;;;;;;;1.29;100.00;98534.28;5094155;28;19919;-90
2023/01/17 02:17:05;;;;;;;1.30;1.20;;;;;;;1.26;100.00;98534.31;5094358;28;20019;-90
2023/01/17 02:20:09;;;;;;;1.10;1.10;;;;;;;1.28;100.00;98537.69;5110007;28;20494;-90
2023/01/17 02:22:54;;;;;;;1.88;1.67;;;;;;;1.24;100.00;98547.09;5120617;28;20051;-91
2023/01/17 02:25:25;;;;;;;1.58;1.58;;;;;;;1.25;100.00;98556.44;5081986;28;20176;-91
2023/01/17 02:28:28;;;;;;;2.20;1.95;;;;;;;1.32;100.00;98563.19;5114752;28;20027;-91
2023/01/17 02:31:00;;;;;;;4.15;2.33;;;;;;;1.17;100.00;98561.69;5114872;28;20110;-92
2023/01/17 02:33:44;;;;;;;2.15;1.85;;;;;;;1.14;100.00;98560.88;5114618;28;20053;-93
2023/01/17 02:36:24;;;;;;;2.78;2.10;;;;;;;1.12;100.00;98552.41;5114438;28;20020;-91
2023/01/17 02:38:56;;;;;;;3.10;1.85;;;;;;;1.13;100.00;98559.19;5114864;28;20026;-92
2023/01/17 02:41:28;;;;;;;2.30;1.90;;;;;;;1.11;100.00;98548.16;5114605;28;20016;-92
2023/01/17 02:43:53;;;;;;;2.30;1.70;;;;;;;1.07;100.00;98535.41;5115588;28;20110;-90
2023/01/17 02:46:38;;;;;;;2.72;1.73;;;;;;;1.06;100.00;98548.22;5116556;28;20100;-92
2023/01/17 02:49:03;;;;;;;1.88;1.42;;;;;;;1.03;100.00;98551.63;5114353;28;20024;-90
2023/01/17 02:52:22;;;;;;;1.38;1.30;;;;;;;1.01;100.00;98562.75;5113597;28;20030;-91
2023/01/17 02:55:23;;;;;;;1.10;1.05;;;;;;;0.98;100.00;98563.66;5114467;28;20070;-91
2023/01/17 02:58:18;;;;;;;1.00;1.00;;;;;;;0.99;100.00;98556.81;5114125;28;20084;-90
2023/01/17 03:01:32;;;;;;;0.80;0.80;;;;;;;0.98;100.00;98550.88;5114602;28;20026;-91
2023/01/17 03:04:24;;;;;;;1.00;0.90;;;;;;;0.95;100.00;98552.63;5114332;28;20055;-91
2023/01/17 03:07:15;;;;;;;0.70;0.70;;;;;;;0.92;100.00;98562.00;5114285;28;20034;-91
2023/01/17 03:09:58;;;;;;;0.50;0.50;;;;;;;0.88;100.00;98573.13;5114309;28;20030;-91
2023/01/17 03:12:45;;;;;;;0.60;0.60;;;;;;;0.83;100.00;98564.69;5127654;28;20034;-90
2023/01/17 03:15:13;;;;;;;2.42;0.60;;;;;;;0.77;100.00;98570.72;5117785;28;20081;-90
2023/01/17 03:17:59;;;;;;;1.45;0.55;;;;;;;0.71;100.00;98573.31;5113890;28;20066;-90
2023/01/17 03:20:25;;;;;;;0.33;0.33;;;;;;;0.67;100.00;98576.81;5114201;28;20030;-90
2023/01/17 03:23:11;;;;;;;1.05;0.50;;;;;;;0.65;100.00;98578.53;5113878;28;20027;-91
2023/01/17 03:25:37;;;;;;;1.48;0.50;;;;;;;0.64;100.00;98578.50;5113759;28;20044;-90
2023/01/17 03:28:02;;;;;;;0.40;0.40;;;;;;;0.60;100.00;98586.22;5113842;28;20111;-90
2023/01/17 03:31:05;;;;;;;0.40;0.40;;;;;;;0.62;100.00;98588.75;5113313;28;20484;-90
2023/01/17 03:33:48;;;;;;;0.28;0.28;;;;;;;0.53;100.00;98589.69;5114173;28;20024;-90
2023/01/17 03:36:35;;;;;;;0.45;0.38;;;;;;;0.50;100.00;98589.75;5113660;28;20035;-90
2023/01/17 03:39:01;;;;;;;0.70;0.50;;;;;;;0.45;100.00;98587.22;5114054;28;20406;-90
2023/01/17 03:41:35;;;;;;;0.45;0.45;;;;;;;0.43;100.00;98595.75;5114047;28;20160;-90
2023/01/17 03:44:01;;;;;;;0.40;0.40;;;;;;;0.41;100.00;98588.13;5113299;28;20020;-89
2023/01/17 03:46:27;;;;;;;0.98;0.38;;;;;;;0.34;100.00;98589.03;5114189;28;20053;-90
2023/01/17 03:48:53;;;;;;;1.30;0.60;;;;;;;0.32;100.00;98588.22;5117540;28;20023;-90
2023/01/17 03:51:39;;;;;;;1.50;0.80;;;;;;;0.31;100.00;98591.63;5116837;28;20509;-90
2023/01/17 03:54:05;;;;;;;0.70;0.55;;;;;;;0.28;100.00;98595.03;5119753;28;20058;-90
2023/01/17 03:56:49;;;;;;;0.57;0.57;;;;;;;0.34;100.00;98599.25;5117034;28;20072;-89
2023/01/17 03:59:14;;;;;;;0.98;0.60;;;;;;;0.28;100.00;98592.50;5116864;28;20022;-90
2023/01/17 04:02:01;;;;;;;1.13;0.60;;;;;;;0.24;100.00;98587.44;5117285;28;20106;-90
2023/01/17 04:04:26;;;;;;;1.02;0.63;;;;;;;0.23;100.00;98590.84;5116470;28;20402;-89
2023/01/17 04:06:52;;;;;;;0.77;0.60;;;;;;;0.22;100.00;98602.78;5116281;28;20020;-89
2023/01/17 04:09:35;;;;;;;0.50;0.50;;;;;;;0.21;100.00;98608.72;5116946;28;20426;-89
2023/01/17 04:12:01;;;;;;;0.50;0.50;;;;;;;0.27;100.00;98605.28;5116920;28;20024;-89
2023/01/17 04:14:42;;;;;;;2.00;0.70;;;;;;;0.19;100.00;98597.69;5116388;28;20038;-89
2023/01/17 04:17:11;;;;;;;2.25;1.10;;;;;;;0.21;100.00;98603.63;5116586;28;20040;-89
2023/01/17 04:19:37;;;;;;;1.27;0.90;;;;;;;0.20;100.00;98598.53;5116420;28;20019;-89
2023/01/17 04:22:02;;;;;;;1.25;1.15;;;;;;;0.21;100.00;98602.78;5116388;28;20020;-89
2023/01/17 04:24:28;;;;;;;2.22;1.33;;;;;;;0.19;100.00;98597.69;5116655;28;20107;-89
2023/01/17 04:26:53;;;;;;;2.13;1.30;;;;;;;0.22;100.00;98610.41;5109785;28;20519;-89
2023/01/17 04:29:19;;;;;;;0.85;0.82;;;;;;;0.24;100.00;98607.84;5115938;28;20031;-88
2023/01/17 04:31:45;;;;;;;1.35;0.93;;;;;;;0.25;100.00;98607.84;5116674;28;20027;-89
2023/01/17 04:34:10;;;;;;;1.10;1.00;;;;;;;0.26;100.00;98606.13;5116476;28;20023;-89
2023/01/17 04:36:36;;;;;;;0.90;0.90;;;;;;;0.26;100.00;98612.09;5116201;28;20034;-89
2023/01/17 04:39:10;;;;;;;1.92;1.10;;;;;;;0.28;100.00;98609.53;5116308;28;20422;-89
2023/01/17 04:41:36;;;;;;;0.63;0.63;;;;;;;0.27;100.00;98602.72;5116421;28;20073;-87
2023/01/17 04:44:01;;;;;;;1.67;1.02;;;;;;;0.25;100.00;98607.00;5116025;28;20015;-88
2023/01/17 04:46:27;;;;;;;0.93;0.77;;;;;;;0.21;100.00;98605.34;5115831;28;20489;-88
2023/01/17 04:48:53;;;;;;;1.05;0.93;;;;;;;0.21;100.00;98605.34;5116063;28;20023;-88
2023/01/17 04:51:37;;;;;;;2.20;1.20;;;;;;;0.21;100.00;98613.00;5116140;28;20111;-88
2023/01/17 04:54:02;;;;;;;0.75;0.75;;;;;;;0.17;100.00;98613.88;5115729;28;20027;-88
2023/01/17 04:56:28;;;;;;;1.98;1.10;;;;;;;0.12;100.00;98609.66;5118751;28;20096;-88
2023/01/17 04:58:56;;;;;;;1.30;0.80;;;;;;;0.08;100.00;98612.25;5114731;28;20019;-88
2023/01/17 05:01:22;;;;;;;1.20;1.00;;;;;;;0.11;100.00;98617.31;5115460;28;20020;-88
2023/01/17 05:06:33;;;;;;;2.83;1.50;;;;;;;0.00;100.00;98617.44;5073985;28;20361;-87
2023/01/17 05:08:58;;;;;;;1.13;1.00;;;;;;;-0.02;100.00;98611.50;5115428;28;20053;-88
2023/01/17 05:11:41;;;;;;;1.77;1.60;;;;;;;-0.05;100.00;98609.78;5115534;28;20085;-88
2023/01/17 05:14:08;;;;;;;1.45;1.35;;;;;;;-0.06;100.00;98620.00;5114729;28;20104;-88
2023/01/17 05:16:34;;;;;;;;;;;;;;;-0.05;100.00;98625.09;5115993;28;20024;-88
2023/01/17 05:19:00;;;;;;;2.73;1.67;;;;;;;-0.10;100.00;98616.66;5115544;28;19918;-87
2023/01/17 05:21:26;;;;;;;2.28;1.50;;;;;;;-0.11;100.00;98622.59;5114701;28;20077;-88
2023/01/17 05:23:51;;;;;;;3.08;1.42;;;;;;;-0.10;100.00;98615.78;5114979;28;20024;-88
2023/01/17 05:26:17;;;;;;;3.55;2.08;;;;;;;-0.10;100.00;98620.88;5114566;28;20507;-88
2023/01/17 05:28:42;;;;;;;4.57;2.53;;;;;;;-0.14;100.00;98619.25;5114688;28;20491;-88
2023/01/17 05:31:10;;;;;;;5.15;2.50;;;;;;;-0.19;100.00;98609.06;5114231;28;20019;-87
2023/01/17 05:33:35;;;;;;;4.97;2.78;;;;;;;-0.23;100.00;98608.25;5115198;28;20023;-87
2023/01/17 05:36:02;;;;;;;5.47;2.75;;;;;;;-0.19;100.00;98622.66;5114476;28;20472;-87
2023/01/17 05:38:28;;;;;;;5.00;2.80;;;;;;;-0.22;100.00;98617.56;5114785;28;20016;-87
2023/01/17 05:41:12;;;;;;;4.90;2.47;;;;;;;-0.20;100.00;98625.22;5078673;28;20036;-87
2023/01/17 05:43:38;;;;;;;4.50;2.47;;;;;;;-0.23;100.00;98621.00;5114314;28;20023;-87
2023/01/17 05:46:03;;;;;;;5.20;2.78;;;;;;;-0.22;100.00;98627.78;5114713;28;20110;-86
2023/01/17 05:48:28;;;;;;;3.60;2.40;;;;;;;-0.24;100.00;98632.06;5114346;28;20042;-87
2023/01/17 05:50:54;;;;;;;2.90;2.17;;;;;;;-0.23;100.00;98633.75;5114561;28;20422;-87
2023/01/17 05:53:19;;;;;;;4.72;2.33;;;;;;;-0.23;100.00;98636.31;5114454;28;20020;-87
2023/01/17 05:56:02;;;;;;;2.85;2.17;;;;;;;-0.25;100.00;98639.69;5114568;28;20027;-87
2023/01/17 05:58:27;;;;;;;2.97;1.95;;;;;;;-0.27;100.00;98642.25;5120356;28;20069;-86
2023/01/17 06:00:54;;;;;;;4.82;2.60;;;;;;;-0.26;100.00;98643.09;5114202;28;20027;-87
2023/01/17 06:03:19;;;;;;;5.70;3.00;;;;;;;-0.27;100.00;98642.25;5113809;28;20027;-86
2023/01/17 06:06:03;;;;;;;4.28;2.63;;;;;;;-0.30;100.00;98649.09;5113582;28;20047;-87
2023/01/17 06:08:28;;;;;;;5.45;3.00;;;;;;;-0.34;100.00;98645.72;5114031;28;20027;-87
2023/01/17 06:10:54;;;;;;;5.32;2.90;;;;;;;-0.33;100.00;98645.69;5113350;28;20097;-86
2023/01/17 06:13:22;;;;;;;5.55;2.80;;;;;;;-0.37;100.00;98644.00;5114101;28;20153;-87
2023/01/17 06:15:47;;;;;;;6.53;2.92;;;;;;;-0.38;100.00;98646.59;5113975;28;20028;-87
2023/01/17 06:18:15;;;;;;;4.35;2.60;;;;;;;-0.39;100.00;98642.34;5113241;28;20475;-87
2023/01/17 06:20:41;;;;;;;6.90;3.40;;;;;;;-0.43;100.00;98645.75;5113553;28;20055;-86
2023/01/17 06:23:10;;;;;;;8.18;3.53;;;;;;;-0.42;100.00;98650.84;5113215;28;20032;-87
2023/01/17 06:25:43;;;;;;;6.53;3.70;;;;;;;-0.42;100.00;98657.66;5113283;28;20027;-87
2023/01/17 06:28:10;;;;;;;6.53;3.30;;;;;;;-0.44;100.00;98655.13;5113476;28;20047;-86
2023/01/17 06:33:20;;;;;;;5.47;3.10;;;;;;;-0.49;100.00;98649.19;5113212;28;20161;-86
2023/01/17 06:35:56;;;;;;;5.72;2.90;;;;;;;-0.50;100.00;98650.91;5113466;28;20027;-87
2023/01/17 06:38:26;;;;;;;4.13;2.90;;;;;;;-0.38;100.00;98659.34;5112951;28;20085;-87
2023/01/17 06:40:53;;;;;;;9.52;3.70;;;;;;;-0.39;100.00;98660.19;5113355;28;20462;-87
2023/01/17 06:43:19;;;;;;;10.02;4.53;;;;;;;-0.55;100.00;98646.69;5093063;28;20035;-87
2023/01/17 06:45:49;;;;;;;9.00;4.28;;;;;;;-0.56;100.00;98661.09;5093222;28;20020;-87
2023/01/17 06:48:17;;;;;;;7.60;3.90;;;;;;;-0.58;100.00;98652.66;5093356;28;20024;-86
2023/01/17 06:50:48;;;;;;;6.47;3.70;;;;;;;-0.61;100.00;98652.66;5093750;28;20119;-86
2023/01/17 06:53:19;;;;;;;6.72;3.65;;;;;;;-0.59;100.00;98660.28;5092469;28;20077;-87
2023/01/17 06:55:57;;;;;;;6.22;3.28;;;;;;;-0.62;100.00;98662.00;5092908;28;20110;-87
2023/01/17 06:58:31;;;;;;;7.65;3.80;;;;;;;-0.65;100.00;98662.03;5112667;28;20055;-87
2023/01/17 07:00:57;;;;;;;6.80;3.65;;;;;;;-0.66;100.00;98664.56;5114429;28;20019;-87
2023/01/17 07:03:25;;;;;;;7.47;3.72;;;;;;;-0.67;100.00;98662.88;5113010;28;20054;-86
2023/01/17 07:05:51;;;;;;;9.25;4.57;;;;;;;-0.74;100.00;98659.53;5113757;28;20020;-88
2023/01/17 07:08:20;;;;;;;5.32;3.35;;;;;;;-0.73;100.00;98666.28;5114082;28;20427;-89
2023/01/17 07:10:47;;;;;;;8.73;4.20;;;;;;;-0.75;100.00;98664.59;5113023;28;20035;-85
2023/01/17 07:13:13;;;;;;;9.20;4.32;;;;;;;-0.75;100.00;98673.13;5112361;28;20019;-86
2023/01/17 07:15:38;;;;;;;8.45;4.30;;;;;;;-0.79;100.00;98667.16;5110154;28;20028;-92
2023/01/17 07:18:05;;;;;;;8.85;4.60;;;;;;;-0.79;100.00;98668.88;5112717;28;20619;-85
2023/01/17 07:20:31;;;;;;;9.15;4.63;;;;;;;-0.83;100.00;98662.09;5113026;28;20804;-87
2023/01/17 07:22:59;;;;;;;8.38;4.13;;;;;;;-0.84;100.00;98673.13;5117036;28;20030;-87
2023/01/17 07:25:24;;;;;;;7.53;4.05;;;;;;;-0.85;100.00;98672.28;5117228;28;20507;-87
2023/01/17 07:27:56;;;;;;;7.88;3.90;;;;;;;-0.84;100.00;98673.13;5115736;28;20047;-87
2023/01/17 07:30:34;;;;;;;7.03;3.70;;;;;;;-0.87;100.00;98674.00;5106740;28;20043;-88
2023/01/17 07:33:05;;;;;;;8.05;3.78;;;;;;;-0.86;100.00;98678.25;5117121;28;20020;-87
2023/01/17 07:35:46;;;;;;;6.22;3.40;;;;;;;-0.86;100.00;98678.25;5116941;28;20024;-87
2023/01/17 07:38:23;;;;;;;7.50;3.70;;;;;;;-0.89;100.00;98683.34;5116580;28;20016;-87
2023/01/17 07:40:49;;;;;;;6.72;3.47;;;;;;;-0.88;100.00;98676.56;5116688;28;20027;-87
2023/01/17 07:43:23;;;;;;;5.57;3.10;;;;;;;-0.89;100.00;98683.34;5116007;28;20468;-87
2023/01/17 07:45:49;;;;;;;6.55;3.13;;;;;;;-0.87;100.00;98679.09;5117004;28;20190;-87
2023/01/17 07:48:33;;;;;;;5.93;3.08;;;;;;;-0.87;100.00;98678.25;5116043;28;20035;-87
2023/01/17 07:50:58;;;;;;;5.40;3.05;;;;;;;-0.84;100.00;98690.97;5116358;28;20059;-86
2023/01/17 07:53:26;;;;;;;5.80;3.50;;;;;;;-0.86;100.00;98693.53;5116402;28;20506;-86
2023/01/17 07:55:52;;;;;;;5.13;3.10;;;;;;;-0.87;100.00;98696.09;5115848;28;20035;-87
2023/01/17 07:58:33;;;;;;;4.55;2.80;;;;;;;-0.87;100.00;98693.53;5116622;28;20011;-87
2023/01/17 08:01:07;;;;;;;4.90;2.80;;;;;;;-0.85;100.00;98685.03;5116491;28;20024;-86
2023/01/17 08:03:45;;;;;;;;;;;;;;;;;;;;;
2023/01/17 08:06:28;;;;;;;4.70;2.72;;;;;;;-0.80;100.00;98690.09;5114894;28;20487;-88
2023/01/17 08:08:57;;;;;;;4.00;2.78;;;;;;;-0.78;100.00;98684.13;5116817;28;20096;-88
2023/01/17 08:11:25;;;;;;;4.47;2.67;;;;;;;-0.76;100.00;98685.84;5115981;28;20035;-87
2023/01/17 08:13:58;;;;;;;3.78;2.45;;;;;;;-0.77;100.00;98685.00;5116497;28;20463;-87
2023/01/17 08:16:24;;;;;;;3.97;2.40;;;;;;;-0.73;100.00;98689.22;5116264;28;20024;-87
2023/01/17 08:18:50;;;;;;;7.20;2.88;;;;;;;-0.71;100.00;98692.59;5115482;28;20372;-87
2023/01/17 08:21:22;;;;;;;5.95;2.97;;;;;;;-0.70;100.00;98689.22;5114193;28;20024;-85
2023/01/17 08:23:49;;;;;;;4.82;2.67;;;;;;;-0.62;100.00;98704.47;5114173;28;20034;-87
2023/01/17 08:26:22;;;;;;;6.05;3.22;;;;;;;-0.60;100.00;98701.91;5115527;28;20479;-87
2023/01/17 08:28:55;;;;;;;5.60;2.97;;;;;;;-0.58;100.00;98702.75;5115999;28;20030;-87
2023/01/17 08:31:21;;;;;;;4.18;2.78;;;;;;;-0.53;100.00;98706.97;5114825;28;20024;-86
2023/01/17 08:33:46;;;;;;;4.78;2.90;;;;;;;-0.51;100.00;98702.72;5115055;28;20114;-86
2023/01/17 08:36:11;;;;;;;4.70;2.83;;;;;;;-0.49;100.00;98701.00;5115446;28;20043;-87
2023/01/17 08:38:36;;;;;;;5.07;2.85;;;;;;;-0.49;100.00;98701.00;5114997;28;20053;-87
2023/01/17 08:41:02;;;;;;;4.47;2.83;;;;;;;-0.49;100.00;98706.13;5115432;28;20020;-86
2023/01/17 08:43:27;;;;;;;6.82;3.25;;;;;;;-0.49;100.00;98706.13;5115259;28;20059;-87
2023/01/17 08:45:54;;;;;;;6.25;3.20;;;;;;;-0.45;100.00;98704.38;5114923;28;20016;-87
2023/01/17 08:48:21;;;;;;;6.35;3.15;;;;;;;-0.42;100.00;98714.56;5115456;28;20027;-87
2023/01/17 08:50:46;;;;;;;5.88;3.10;;;;;;;-0.40;100.00;98715.41;5115693;28;20039;-87
2023/01/17 08:53:12;;;;;;;7.03;3.50;;;;;;;-0.39;100.00;98706.88;5113788;28;20027;-87
2023/01/17 08:55:39;;;;;;;5.63;3.17;;;;;;;-0.35;100.00;98712.84;5114636;28;20421;-87
2023/01/17 08:58:05;;;;;;;6.20;3.40;;;;;;;-0.34;100.00;98712.00;5114903;28;20376;-87
2023/01/17 09:00:31;;;;;;;6.63;3.50;;;;;;;-0.32;100.00;98713.66;5114438;28;20024;-87
2023/01/17 09:02:56;;;;;;;6.90;3.72;;;;;;;-0.29;100.00;98712.78;5115167;28;20023;-87
2023/01/17 09:05:22;;;;;;;5.57;3.10;;;;;;;-0.25;100.00;98705.97;5115114;28;20024;-87
2023/01/17 09:07:47;;;;;;;5.90;3.35;;;;;;;-0.23;100.00;98712.78;5114469;28;20027;-87
2023/01/17 09:10:12;;;;;;;7.15;3.63;;;;;;;-0.21;100.00;98721.25;5114913;28;20372;-87
2023/01/17 09:12:39;;;;;;;6.57;3.40;;;;;;;-0.19;100.00;98722.09;5116158;28;20024;-87
2023/01/17 09:15:05;;;;;;;6.72;3.65;;;;;;;-0.16;100.00;98716.97;5113816;28;20025;-87
2023/01/17 09:17:30;;;;;;;7.82;3.50;;;;;;;-0.12;100.00;98730.56;5114630;28;20030;-87
2023/01/17 09:19:58;;;;;;;6.45;3.40;;;;;;;-0.07;100.00;98726.28;5112611;28;20099;-87
2023/01/17 09:22:23;;;;;;;6.57;3.47;;;;;;;0.02;100.00;98727.91;5114893;28;20499;-87
2023/01/17 09:24:56;;;;;;;9.73;4.68;;;;;;;0.04;100.00;98731.31;5115100;28;20055;-87
2023/01/17 09:27:21;;;;;;;11.95;5.20;;;;;;;0.11;100.00;98724.47;5113763;28;20050;-87
2023/01/17 09:29:47;;;;;;;10.20;4.72;;;;;;;0.23;100.00;98726.94;5114076;28;20024;-87
2023/01/17 09:32:12;;;;;;;8.30;3.90;;;;;;;0.33;100.00;98737.06;5114223;28;20024;-87
2023/01/17 09:34:43;;;;;;;7.18;3.78;;;;;;;0.43;100.00;98731.88;5114228;28;20035;-87
2023/01/17 09:37:08;;;;;;;8.05;4.00;;;;;;;0.51;100.00;98734.34;5114091;28;20039;-88
2023/01/17 09:39:34;;;;;;;7.53;3.75;;;;;;;0.57;100.00;98734.31;5114155;28;20073;-85
2023/01/17 09:42:18;;;;;;;6.80;3.63;;;;;;;0.67;100.00;98735.09;5114087;28;20494;-87
2023/01/17 09:44:51;;;;;;;6.82;3.58;;;;;;;0.81;100.00;98731.53;5113696;28;20035;-88
2023/01/17 09:47:51;;;;;;;8.85;3.80;;;;;;;0.92;100.00;98725.47;5113648;28;20039;-86
2023/01/17 09:50:25;;;;;;;7.93;3.75;;;;;;;1.07;100.00;98737.25;5113382;28;20441;-86
2023/01/17 09:53:00;;;;;;;9.77;4.72;;;;;;;1.14;100.00;98744.81;5114532;28;20114;-87
2023/01/17 09:55:49;;;;;;;9.43;4.55;;;;;;;1.22;100.00;98749.00;5113946;28;20020;-87
2023/01/17 09:58:25;;;;;;;7.78;4.15;;;;;;;1.33;100.00;98754.00;5097277;28;20422;-87
2023/01/17 10:01:08;;;;;;;7.97;3.90;;;;;;;1.33;100.00;98750.59;5094108;28;20035;-87
2023/01/17 10:03:55;;;;;;;7.25;3.83;;;;;;;1.42;100.00;98747.91;5102865;28;20035;-87
2023/01/17 10:06:48;;;;;;;7.70;3.53;;;;;;;1.51;100.00;98745.28;5110651;28;20043;-87
2023/01/17 10:09:28;;;;;;;6.97;3.50;;;;;;;1.62;100.00;98749.41;5113129;28;20075;-87
2023/01/17 10:12:18;;;;;;;5.88;3.53;;;;;;;1.68;100.00;98751.88;5114166;28;20020;-87
2023/01/17 10:14:43;;;;;;;7.97;3.75;;;;;;;1.69;100.00;98744.16;5111442;28;20031;-86
2023/01/17 10:17:35;;;;;;;7.13;3.67;;;;;;;1.74;100.00;98748.41;5112823;28;20073;-87
2023/01/17 10:20:32;;;;;;;5.90;3.38;;;;;;;1.77;100.00;98750.91;5113956;28;20020;-87
2023/01/17 10:23:16;;;;;;;5.90;3.22;;;;;;;1.83;100.00;98756.81;5113768;28;20051;-87
2023/01/17 10:25:47;;;;;;;6.53;3.60;;;;;;;1.91;100.00;98755.84;5113332;28;20081;-86
2023/01/17 10:28:19;;;;;;;7.03;3.60;;;;;;;1.99;100.00;98749.75;5112017;28;20047;-86
2023/01/17 10:30:48;;;;;;;6.00;3.55;;;;;;;2.06;100.00;98755.63;5112552;28;20453;-85
2023/01/17 10:33:20;;;;;;;6.78;3.55;;;;;;;2.13;100.00;98747.00;5113119;28;20050;-86
2023/01/17 10:35:55;;;;;;;6.03;3.30;;;;;;;2.22;100.00;98745.16;5112871;28;20036;-87
2023/01/17 10:38:31;;;;;;;5.00;3.00;;;;;;;2.25;100.00;98740.84;5112357;28;20016;-86
2023/01/17 10:41:03;;;;;;;5.82;3.40;;;;;;;2.29;100.00;98750.16;5103049;28;20023;-87
2023/01/17 10:43:51;;;;;;;5.45;3.00;;;;;;;2.37;100.00;98752.63;5113206;28;20097;-87
2023/01/17 10:46:55;;;;;;;5.30;3.00;;;;;;;2.39;100.00;98750.88;5112988;28;20015;-87
2023/01/17 10:49:26;;;;;;;5.25;2.90;;;;;;;2.38;100.00;98756.88;5061812;28;20055;-87
2023/01/17 10:52:08;;;;;;;5.30;3.10;;;;;;;2.36;100.00;98752.66;5113510;28;20031;-87
2023/01/17 10:54:46;;;;;;;4.57;2.85;;;;;;;2.35;100.00;98756.09;5113188;28;20068;-87
2023/01/17 10:57:18;;;;;;;6.25;3.10;;;;;;;2.40;100.00;98759.41;5117214;28;20027;-86
2023/01/17 10:59:44;;;;;;;6.43;3.05;;;;;;;2.50;100.00;98755.00;5117327;28;20028;-87
2023/01/17 11:02:23;;;;;;;4.95;3.17;;;;;;;2.58;100.00;98754.00;5117372;28;20015;-87
2023/01/17 11:04:53;;;;;;;8.80;4.32;;;;;;;2.70;97.25;98750.38;5117514;28;20037;-87
2023/01/17 11:07:25;;;;;;;7.88;4.13;;;;;;;2.81;99.79;98751.91;5117105;28;20032;-87
2023/01/17 11:09:53;;;;;;;8.00;4.13;;;;;;;2.98;100.00;98756.75;5117649;28;20023;-87
2023/01/17 11:12:28;;;;;;;6.65;3.55;;;;;;;3.11;100.00;98753.09;5116929;28;20027;-86
2023/01/17 11:15:16;;;;;;;6.03;3.22;;;;;;;3.26;100.00;98744.25;5117515;28;20035;-87
2023/01/17 11:17:51;;;;;;;7.35;3.70;;;;;;;3.30;99.58;98745.91;5101614;28;20495;-87
2023/01/17 11:20:24;;;;;;;7.32;3.60;;;;;;;3.34;98.22;98747.50;5117083;28;20024;-87
2023/01/17 11:23:15;;;;;;;6.53;3.70;;;;;;;3.41;99.08;98743.09;5118051;28;20015;-87
2023/01/17 11:25:49;;;;;;;5.32;3.30;;;;;;;3.49;98.96;98737.84;5117050;28;20019;-87
2023/01/17 11:28:24;;;;;;;5.05;2.85;;;;;;;3.53;99.02;98736.91;5116673;28;20118;-87
2023/01/17 11:30:51;;;;;;;6.20;3.25;;;;;;;3.54;98.60;98738.59;5117665;28;20031;-87
2023/01/17 11:33:32;;;;;;;4.82;2.88;;;;;;;3.56;98.21;98729.13;5129449;28;20023;-88
2023/01/17 11:35:57;;;;;;;6.32;3.40;;;;;;;3.62;95.77;98739.28;5121192;28;20484;-88
2023/01/17 11:38:23;;;;;;;6.35;3.03;;;;;;;3.68;97.43;98736.56;5117292;28;20027;-88
2023/01/17 11:40:52;;;;;;;6.03;3.13;;;;;;;3.76;97.41;98736.41;5117015;28;20023;-88
2023/01/17 11:43:23;;;;;;;5.53;3.22;;;;;;;3.83;97.22;98724.28;5116895;28;20073;-87
2023/01/17 11:46:15;;;;;;;7.25;3.50;;;;;;;3.88;94.96;98734.47;5116570;28;20034;-89
2023/01/17 11:48:49;;;;;;;7.03;3.20;;;;;;;3.91;95.90;98729.28;5101730;28;20153;-87
2023/01/17 11:51:18;;;;;;;5.90;2.90;;;;;;;3.94;96.55;98721.50;5116920;28;20028;-88
2023/01/17 11:53:47;;;;;;;7.22;3.40;;;;;;;3.92;95.25;98726.66;5116719;28;20031;-87
2023/01/17 11:56:27;;;;;;;4.63;3.13;;;;;;;3.91;96.39;98729.28;5116157;28;20128;-87
2023/01/17 11:59:26;;;;;;;4.53;2.90;;;;;;;3.88;95.93;98730.19;5116833;28;20110;-87
2023/01/17 12:02:04;;;;;;;5.15;2.95;;;;;;;3.80;93.99;98730.34;5115809;28;20122;-87
2023/01/17 12:05:22;;;;;;;5.15;3.03;;;;;;;3.78;95.07;98724.41;5116090;28;20036;-87
2023/01/17 12:07:59;;;;;;;4.50;2.70;;;;;;;3.77;91.83;98721.88;5062044;28;20070;-87
2023/01/17 12:11:09;;;;;;;4.45;2.85;;;;;;;3.79;94.36;98726.09;5095436;28;20023;-87
2023/01/17 12:13:59;;;;;;;5.10;2.70;;;;;;;3.84;94.17;98728.56;5096090;28;20058;-86
2023/01/17 12:16:29;;;;;;;2.92;2.38;;;;;;;3.86;93.04;98717.38;5098350;28;20019;-88
2023/01/17 12:19:31;;;;;;;3.28;2.40;;;;;;;3.94;93.35;98721.50;5116599;28;20090;-88
2023/01/17 12:22:17;;;;;;;5.05;2.58;;;;;;;4.01;89.38;98725.63;5116452;28;20040;-88
2023/01/17 12:25:05;;;;;;;4.85;2.55;;;;;;;4.02;90.93;98724.75;5095441;28;20024;-87
2023/01/17 12:27:44;;;;;;;3.30;2.40;;;;;;;4.05;91.82;98723.81;5095474;28;20044;-87
2023/01/17 12:30:25;;;;;;;3.17;2.00;;;;;;;4.09;92.10;98717.75;5095031;28;20113;-85
2023/01/17 12:33:17;;;;;;;4.13;2.40;;;;;;;4.10;89.37;98710.00;5110915;28;20039;-87
2023/01/17 12:36:00;;;;;;;3.25;2.10;;;;;;;4.11;89.51;98716.00;5098554;28;20131;-87
2023/01/17 12:38:31;;;;;;;4.68;2.88;;;;;;;4.07;81.52;98715.19;5128477;27;20027;-88
2023/01/17 12:41:04;;;;;;;4.20;2.33;;;;;;;4.05;86.28;98716.13;5128858;27;20019;-87
2023/01/17 12:43:38;;;;;;;3.75;2.40;;;;;;;4.03;88.82;98716.16;5118764;27;20479;-91
2023/01/17 12:46:11;;;;;;;2.85;2.22;;;;;;;4.05;86.24;98708.41;5115157;28;20031;-87
2023/01/17 12:48:38;;;;;;;3.03;2.30;;;;;;;4.06;86.44;98705.81;5121447;22;20059;-89
2023/01/17 12:51:40;;;;;;;4.05;2.20;;;;;;;4.10;83.77;98717.69;5115794;28;20487;-88
2023/01/17 12:54:25;;;;;;;4.50;2.47;;;;;;;4.07;84.59;98707.50;5115593;28;20020;-88
2023/01/17 12:57:22;;;;;;;2.72;2.20;;;;;;;4.06;86.25;98707.53;5116083;28;20024;-89
2023/01/17 13:00:07;;;;;;;2.60;1.92;;;;;;;4.04;81.23;98706.72;5115707;28;20035;-89
2023/01/17 13:02:37;;;;;;;2.50;1.88;;;;;;;4.05;82.75;98703.28;5115897;28;20060;-89
2023/01/17 13:05:24;;;;;;;2.78;1.88;;;;;;;4.06;85.66;98704.97;5115955;28;20472;-89
2023/01/17 13:08:11;;;;;;;2.22;1.75;;;;;;;4.06;83.80;98708.38;5116142;28;20022;-89
2023/01/17 13:10:55;;;;;;;;;;;;;;;4.11;85.31;98713.44;5112381;28;20032;-88
2023/01/17 13:13:30;;;;;;;1.90;1.70;;;;;;;4.13;85.99;98701.38;5115143;28;19964;-89
2023/01/17 13:16:35;;;;;;;1.45;1.35;;;;;;;4.20;86.41;98707.22;5115668;28;20098;-88
2023/01/17 13:19:23;;;;;;;1.67;1.45;;;;;;;4.23;87.41;98704.56;5100797;28;20088;-87
2023/01/17 13:21:55;;;;;;;1.38;1.27;;;;;;;4.29;86.13;98707.84;5115852;28;20443;-88
2023/01/17 13:24:47;;;;;;;2.30;1.60;;;;;;;4.28;83.17;98701.03;5114635;28;20479;-88
2023/01/17 13:27:30;;;;;;;2.58;1.60;;;;;;;4.28;79.99;98711.28;5031928;28;20568;-92
2023/01/17 13:30:18;;;;;;;1.73;1.60;;;;;;;4.28;82.80;98708.72;5115668;28;20096;-89